»·PEaware :: N7474B KSBA-KBUR

N7474B :: KSBA-KBUR

FLIGHT INFORMATION

Flight Status: Arrived
Operator: Privately registered:
United States
More flights under this callsign
Pilot: Wayne R. (17783)
Aircraft: CESSNA 172 SKYHAWK
(C172)
More flights by this aircraft type
Origin: KSBA Santa Barbara Mun
United States
Destination: KBUR Bob Hope-Burbank
United States
More flights between these airports :: More routes between these airports
Route: +
File this flight plan on PilotEdge
Remarks:
Altitude:
(Current/Filed)
5,500ft
Speed:
(Current/Filed)
0kts
Departed: 08-Sep-18 05:38 PM
Arrived: 08-Sep-18 06:40 PM
Distance/Time
Traveled:
75nm/1:02
Distance/Time
To Go:
Arrived

Flight Plot

Page will automatically refresh every two minutes.


Map Options




Map Legend


Flown Route
Filed Route
Departure Airport
Arrival Airport
Navaid (VOR, NDB)
Fix

Horizontal Profiles

Position Reports

Time Latitude Longitude Heading Altitude Ground
Speed
08-Sep-18 17:31 34.420117 -119.835852 199 13ft 0kts
08-Sep-18 17:32 34.420114 -119.835853 199 13ft 0kts
08-Sep-18 17:33 34.420110 -119.835855 199 13ft 0kts
08-Sep-18 17:34 34.420106 -119.835857 199 13ft 0kts
08-Sep-18 17:35 34.420102 -119.836336 337 13ft 5kts
08-Sep-18 17:36 34.423709 -119.837460 348 13ft 13kts
08-Sep-18 17:37 34.426702 -119.837773 77 13ft 10kts
08-Sep-18 17:38 34.427074 -119.835371 43 13ft 0kts
08-Sep-18 17:39 34.427803 -119.835710 276 13ft 16kts
08-Sep-18 17:40 34.423772 -119.856172 253 619ft 78kts
08-Sep-18 17:41 34.421111 -119.889168 271 1011ft 106kts
08-Sep-18 17:42 34.421295 -119.917590 272 1359ft 110kts
08-Sep-18 17:43 34.421368 -119.955145 270 1504ft 116kts
08-Sep-18 17:44 34.420680 -119.994676 269 1492ft 114kts
08-Sep-18 17:45 34.419725 -120.031514 268 1500ft 107kts
08-Sep-18 17:46 34.415505 -120.067216 262 1500ft 107kts
08-Sep-18 17:47 34.400828 -120.091166 161 1581ft 104kts
08-Sep-18 17:48 34.384292 -120.063409 93 2109ft 112kts
08-Sep-18 17:49 34.382367 -120.025341 91 2613ft 113kts
08-Sep-18 17:50 34.379354 -119.989266 91 3287ft 103kts
08-Sep-18 17:51 34.376156 -119.954887 91 3982ft 103kts
08-Sep-18 17:52 34.372968 -119.919783 91 4677ft 106kts
08-Sep-18 17:53 34.369964 -119.884043 91 5371ft 106kts
08-Sep-18 17:54 34.367846 -119.850140 91 5505ft 136kts
08-Sep-18 17:55 34.365782 -119.815199 96 5501ft 142kts
08-Sep-18 17:56 34.363611 -119.800127 99 5502ft 142kts
08-Sep-18 17:57 34.356773 -119.753769 99 5497ft 135kts
08-Sep-18 17:58 34.350247 -119.709142 99 5500ft 134kts
08-Sep-18 17:59 34.343406 -119.664797 99 5500ft 134kts
08-Sep-18 17:59 34.337573 -119.627871 98 5500ft 134kts
08-Sep-18 18:01 34.330929 -119.576156 95 5499ft 130kts
08-Sep-18 18:02 34.325563 -119.533041 96 5502ft 129kts
08-Sep-18 18:02 34.321225 -119.497666 96 5500ft 130kts
08-Sep-18 18:03 34.316042 -119.455222 96 5501ft 130kts
08-Sep-18 18:05 34.309803 -119.404584 95 5500ft 130kts
08-Sep-18 18:05 34.305318 -119.368373 95 5502ft 130kts
08-Sep-18 18:06 34.299894 -119.324371 95 5522ft 138kts
08-Sep-18 18:07 34.295220 -119.278021 94 5502ft 142kts
08-Sep-18 18:08 34.290816 -119.231427 93 5497ft 135kts
08-Sep-18 18:09 34.286465 -119.187087 93 5604ft 129kts
08-Sep-18 18:11 34.282204 -119.143465 93 5669ft 133kts
08-Sep-18 18:12 34.277916 -119.099939 93 5662ft 128kts
08-Sep-18 18:13 34.273847 -119.057023 93 5662ft 128kts
08-Sep-18 18:14 34.269908 -119.013827 93 5665ft 129kts
08-Sep-18 18:15 34.265969 -118.970700 93 5666ft 129kts
08-Sep-18 18:16 34.262000 -118.927540 93 5666ft 129kts
08-Sep-18 18:17 34.258015 -118.884317 93 5668ft 129kts
08-Sep-18 18:18 34.254026 -118.841252 93 5672ft 129kts
08-Sep-18 18:19 34.250021 -118.798077 93 5676ft 129kts
08-Sep-18 18:20 34.246180 -118.754999 94 5679ft 129kts
08-Sep-18 18:21 34.241014 -118.711665 98 5515ft 135kts
08-Sep-18 18:22 34.234882 -118.667276 98 5039ft 137kts
08-Sep-18 18:23 34.228235 -118.622175 98 4550ft 135kts
08-Sep-18 18:24 34.221365 -118.577680 98 4056ft 133kts
08-Sep-18 18:25 34.213068 -118.534492 101 3564ft 131kts
08-Sep-18 18:26 34.205430 -118.493966 97 3500ft 120kts
08-Sep-18 18:27 34.199409 -118.453762 97 3294ft 121kts
08-Sep-18 18:28 34.194624 -118.417191 94 2714ft 102kts
08-Sep-18 18:29 34.186584 -118.390927 133 2375ft 76kts
08-Sep-18 18:30 34.171506 -118.399203 270 2634ft 68kts
08-Sep-18 18:31 34.173575 -118.424358 272 3083ft 86kts
08-Sep-18 18:32 34.172187 -118.452889 272 3335ft 80kts
08-Sep-18 18:33 34.165114 -118.456155 104 3641ft 96kts
08-Sep-18 18:34 34.160668 -118.422177 88 3810ft 106kts
08-Sep-18 18:35 34.160064 -118.385324 85 3270ft 111kts
08-Sep-18 18:36 34.160176 -118.350020 88 2781ft 101kts
08-Sep-18 18:37 34.164713 -118.319635 358 2083ft 97kts
08-Sep-18 18:38 34.183435 -118.339970 323 1748ft 85kts
08-Sep-18 18:39 34.204722 -118.348324 346 1707ft 76kts
08-Sep-18 18:40 34.223561 -118.354717 337 1689ft 69kts
08-Sep-18 18:41 34.214512 -118.361042 168 1071ft 72kts
08-Sep-18 18:42 34.199604 -118.356927 188 724ft 12kts
08-Sep-18 18:43 34.198792 -118.357704 266 724ft 0kts
08-Sep-18 18:44 34.198749 -118.357853 226 724ft 2kts
08-Sep-18 18:45 34.201438 -118.359599 33 724ft 4kts
08-Sep-18 18:46 34.201371 -118.359659 40 724ft 0kts
08-Sep-18 18:47 34.201373 -118.359657 40 724ft 0kts
08-Sep-18 18:48 34.201373 -118.359657 40 724ft 0kts
08-Sep-18 18:49 34.201373 -118.359657 40 724ft 0kts
08-Sep-18 18:50 34.201373 -118.359657 40 724ft 0kts
08-Sep-18 18:51 34.201373 -118.359657 40 724ft 0kts
08-Sep-18 18:52 34.201373 -118.359657 40 724ft 0kts
08-Sep-18 18:53 34.201373 -118.359657 40 724ft 0kts
08-Sep-18 18:54 34.201373 -118.359657 40 724ft 0kts
08-Sep-18 18:55 34.201373 -118.359657 40 724ft 0kts
08-Sep-18 18:56 34.201373 -118.359657 40 724ft 0kts

Navigation Log

Ident Type
1. KSBA Airport
2. KBUR Airport